Ogulin, Croatia

4:38 PM CEST on September 23, 2014 (GMT +0200)
Stajnica | Change Station
CLOSE
Current Station
Personal Weather Station
Location: Jezerane, Licko-senjska zupanija
Elevation: 1677 ft
Nearby Weather Stations

Elev 1677 ft 45.03 °N, 15.24 °E | Updated 1 minute ago

Partly Cloudy
Partly Cloudy
60.1 °F
Feels Like 60.1 °F
N
6.9
Wind Variable Wind from NNE
Gusts 8.7 mph

Today
High -- | Low -- °F
--% Chance of Precip.
Yesterday
High -- | Low -- °F
Precip. -- in
6:47 AM 6:55 PM
Waning Crescent, 0% visible
Pressure 30.04 in
Visibility 6.2 miles
Clouds Few 4600 ft
Dew Point 29 °F
Humidity 30%
Rainfall 0.29 in
Snow Depth Not available.
UV 2 out of 12
Pollen Not available.
Air Quality Not available.
Flu Activity Not available.
METAR LDRI 231430Z 26003KT 180V330 9999 FEW046 21/07 Q1017

More Conditions Fewer Conditions

Pressure 30.04 in
Visibility 6.2 miles
Clouds Few 4600 ft
Dew Point 29 °F
Humidity 30%
Rainfall 0.29 in
Snow Depth Not available.
UV 2 out of 12
Pollen Not available.
Air Quality Not available.
Flu Activity Not available.
METAR LDRI 231430Z 26003KT 180V330 9999 FEW046 21/07 Q1017

More Conditions Fewer Conditions

10-Day Weather Forecast

Almanac

Astronomy

Sep. 23, 2014 Rise Set
Actual Time 6:47 AM CEST 6:55 PM CEST
Civil Twilight 6:17 AM CEST 7:24 PM CEST
Nautical Twilight 5:42 AM CEST 7:59 PM CEST
Astronomical Twilight 5:07 AM CEST 8:34 PM CEST
Moon 5:53 AM CEST 6:24 PM CEST
Length of Visible Light 13h 07m
Length of Day
12h 08m
Tomorrow will be 3m 9s shorter.
Waning Crescent, 0% of the Moon is Illuminated
Today
Waning Crescent
Sep 24
New
Oct 1
First Quarter
Oct 8
Full
Oct 15
Last Quarter

Today's Extremes

Country Highs Country Lows

Community

WunderPhotos

Upload Photos

1,755,707 photos uploaded!

Nearby

Snow Depth

Not available.

Earthquake Activity

City Distance Mag. Time & Date
No recent earthquake activity has been reported nearby.
Minimum magnitude displayed is 2.5.

Coastal Water Temperatures

Place Temperature
No Stations Reporting

Nearby Weather Stations